Time;durP1;ratioP1;P1;durP2;ratioP2;P2;SDS_P1;SDS_P2;PMS_P1;PMS_P2;Temp;Humidity;BMP_temperature;BMP_pressure;BME280_temperature;BME280_humidity;BME280_pressure;Samples;Min_cycle;Max_cycle;Signal;HPM_P1;HPM_P2
2022/03/07 00:00:09;;;;;;;14.73;11.53;;;1.10;94.10;;;;;;5014389;28;20304;-86
2022/03/07 00:02:37;;;;;;;26.50;13.97;;;1.10;94.20;;;;;;5014659;28;20215;-87
2022/03/07 00:05:06;;;;;;;15.47;11.10;;;1.00;94.40;;;;;;5014311;28;20291;-86
2022/03/07 00:07:35;;;;;;;13.00;11.70;;;1.00;94.80;;;;;;5014491;28;20229;-87
2022/03/07 00:10:04;;;;;;;16.27;12.10;;;1.00;95.40;;;;;;5014132;28;20235;-87
2022/03/07 00:12:32;;;;;;;14.87;11.40;;;0.90;95.30;;;;;;5014253;28;20207;-86
2022/03/07 00:15:01;;;;;;;17.10;12.27;;;0.90;94.70;;;;;;5014533;28;20226;-87
2022/03/07 00:17:31;;;;;;;18.17;12.00;;;0.90;95.70;;;;;;5013741;28;20207;-86
2022/03/07 00:20:02;;;;;;;20.40;13.30;;;0.90;95.40;;;;;;5013923;28;20311;-86
2022/03/07 00:22:30;;;;;;;14.90;13.27;;;0.90;96.40;;;;;;5013744;28;20203;-86
2022/03/07 00:24:59;;;;;;;18.43;12.97;;;0.80;95.40;;;;;;5013973;28;20207;-86
2022/03/07 00:27:27;;;;;;;16.37;12.60;;;0.80;96.20;;;;;;5014007;28;20207;-86
2022/03/07 00:29:56;;;;;;;16.70;12.57;;;0.80;96.00;;;;;;5014209;28;20261;-86
2022/03/07 00:32:24;;;;;;;26.77;13.40;;;0.80;95.80;;;;;;5014343;28;20280;-85
2022/03/07 00:34:55;;;;;;;20.50;14.20;;;0.70;96.10;;;;;;5015349;28;20281;-86
2022/03/07 00:37:23;;;;;;;17.90;13.53;;;0.70;96.10;;;;;;5019485;28;20202;-86
2022/03/07 00:39:52;;;;;;;15.10;11.97;;;0.70;96.90;;;;;;5018354;28;20230;-86
2022/03/07 00:42:20;;;;;;;16.80;12.37;;;0.70;96.60;;;;;;5017816;28;20218;-86
2022/03/07 00:44:49;;;;;;;15.57;12.07;;;0.70;96.50;;;;;;5013885;28;20207;-85
2022/03/07 00:47:17;;;;;;;17.87;12.90;;;0.60;96.50;;;;;;5013944;28;20261;-86
2022/03/07 00:49:46;;;;;;;15.33;11.53;;;0.60;97.10;;;;;;5013610;28;20254;-86
2022/03/07 00:52:16;;;;;;;15.50;12.53;;;0.60;97.90;;;;;;5014071;28;20207;-86
2022/03/07 00:54:44;;;;;;;16.17;12.57;;;0.60;97.20;;;;;;5014556;28;20232;-85
2022/03/07 00:57:13;;;;;;;13.00;11.70;;;0.60;97.00;;;;;;5015296;28;20199;-86
2022/03/07 00:59:41;;;;;;;20.37;13.30;;;0.60;97.10;;;;;;5015445;28;20312;-85
2022/03/07 01:02:10;;;;;;;20.30;12.43;;;0.60;97.30;;;;;;5017239;28;20214;-86
2022/03/07 01:04:39;;;;;;;14.50;12.03;;;0.50;97.20;;;;;;5013624;28;20203;-86
2022/03/07 01:07:08;;;;;;;14.30;11.57;;;0.50;97.00;;;;;;5013491;28;20231;-86
2022/03/07 01:09:38;;;;;;;13.00;11.37;;;0.50;97.10;;;;;;5013011;28;20238;-87
2022/03/07 01:12:07;;;;;;;13.00;11.07;;;0.50;96.80;;;;;;5013247;28;20211;-86
2022/03/07 01:14:35;;;;;;;16.17;13.03;;;0.50;96.80;;;;;;5013124;28;20223;-86
2022/03/07 01:17:04;;;;;;;16.23;12.60;;;0.50;97.10;;;;;;5013403;28;20202;-86
2022/03/07 01:19:33;;;;;;;13.60;12.10;;;0.40;96.90;;;;;;5012844;28;20207;-86
2022/03/07 01:22:01;;;;;;;13.03;11.00;;;0.40;96.90;;;;;;5012806;28;20234;-86
2022/03/07 01:24:31;;;;;;;15.53;11.33;;;0.40;97.50;;;;;;5013120;28;20226;-86
2022/03/07 01:27:00;;;;;;;14.13;11.23;;;0.50;96.50;;;;;;5012929;28;20238;-85
2022/03/07 01:29:29;;;;;;;14.63;12.67;;;0.50;96.60;;;;;;5013197;28;20277;-86
2022/03/07 01:31:57;;;;;;;14.83;12.57;;;0.50;98.10;;;;;;5013063;28;20250;-86
2022/03/07 01:34:26;;;;;;;13.73;11.63;;;0.50;97.00;;;;;;5012763;28;20206;-86
2022/03/07 01:36:54;;;;;;;14.20;11.53;;;0.50;96.60;;;;;;5012937;28;20231;-86
2022/03/07 01:39:24;;;;;;;13.00;11.33;;;0.50;96.60;;;;;;5013133;28;20207;-85
2022/03/07 01:41:53;;;;;;;14.77;11.87;;;0.50;96.70;;;;;;5012298;28;20207;-86
2022/03/07 01:44:25;;;;;;;15.17;11.50;;;0.40;97.10;;;;;;5012496;28;20238;-86
2022/03/07 01:46:55;;;;;;;15.40;12.53;;;0.50;98.00;;;;;;5012624;28;20203;-86
2022/03/07 01:49:25;;;;;;;17.00;11.70;;;0.50;96.40;;;;;;5012680;28;20211;-86
2022/03/07 01:51:53;;;;;;;15.40;11.70;;;0.50;96.30;;;;;;5012579;28;20249;-86
2022/03/07 01:54:23;;;;;;;21.00;14.67;;;0.50;96.60;;;;;;5013159;28;20277;-86
2022/03/07 01:56:53;;;;;;;12.17;10.73;;;0.50;95.90;;;;;;5012282;28;20234;-86
2022/03/07 01:59:24;;;;;;;12.27;10.43;;;0.60;96.10;;;;;;5012459;28;20207;-86
2022/03/07 02:01:55;;;;;;;16.60;9.63;;;0.60;95.10;;;;;;5011556;28;20234;-86
2022/03/07 02:04:24;;;;;;;17.10;11.63;;;0.70;95.70;;;;;;5011865;28;20211;-86
2022/03/07 02:06:52;;;;;;;15.50;11.77;;;0.70;95.70;;;;;;5014857;28;20296;-86
2022/03/07 02:09:21;;;;;;;18.37;11.60;;;0.70;95.10;;;;;;5015100;28;20226;-86
2022/03/07 02:11:49;;;;;;;13.53;10.53;;;0.80;94.90;;;;;;5014778;28;20294;-86
2022/03/07 02:14:18;;;;;;;17.77;11.33;;;0.80;94.40;;;;;;5015277;28;20250;-86
2022/03/07 02:16:48;;;;;;;12.83;10.60;;;0.80;94.10;;;;;;5014889;28;20227;-86
2022/03/07 02:19:17;;;;;;;17.57;11.50;;;0.90;94.50;;;;;;5014959;28;20211;-86
2022/03/07 02:21:48;;;;;;;16.20;11.73;;;0.80;96.10;;;;;;5014644;28;20260;-86
2022/03/07 02:24:19;;;;;;;10.57;9.07;;;0.90;95.00;;;;;;5014837;28;20211;-86
2022/03/07 02:26:57;;;;;;;11.63;10.13;;;0.90;93.90;;;;;;5015187;28;20281;-89
2022/03/07 02:29:25;;;;;;;15.80;10.63;;;0.90;93.90;;;;;;5014441;28;20252;-86
2022/03/07 02:31:54;;;;;;;15.33;10.77;;;0.90;94.00;;;;;;5014633;28;20199;-86
2022/03/07 02:34:22;;;;;;;11.50;10.27;;;0.90;93.30;;;;;;5014831;28;20211;-86
2022/03/07 02:36:51;;;;;;;15.57;11.33;;;0.90;93.80;;;;;;5014731;28;20281;-86
2022/03/07 02:39:21;;;;;;;15.40;11.23;;;1.00;93.90;;;;;;5014969;28;20234;-85
2022/03/07 02:41:50;;;;;;;16.77;11.97;;;0.90;93.30;;;;;;5015264;28;20203;-86
2022/03/07 02:44:18;;;;;;;12.70;9.70;;;1.00;94.30;;;;;;5014209;28;20230;-86
2022/03/07 02:46:47;;;;;;;15.17;10.27;;;1.00;93.20;;;;;;5014704;28;20203;-86
2022/03/07 02:49:17;;;;;;;12.30;9.80;;;0.90;93.20;;;;;;5013927;28;20283;-86
2022/03/07 02:51:46;;;;;;;11.93;10.23;;;1.00;93.90;;;;;;5013885;28;20277;-86
2022/03/07 02:54:14;;;;;;;11.97;10.77;;;0.90;93.30;;;;;;5014872;28;20229;-85
2022/03/07 02:56:47;;;;;;;12.13;9.67;;;0.90;93.70;;;;;;5014376;28;20223;-86
2022/03/07 02:59:16;;;;;;;13.50;10.43;;;0.90;93.70;;;;;;5014307;28;20201;-86
2022/03/07 03:02:01;;;;;;;10.73;9.20;;;0.90;93.40;;;;;;5106443;27;1358690;-87
2022/03/07 03:04:29;;;;;;;15.20;10.60;;;0.90;93.40;;;;;;5131013;28;20207;-87
2022/03/07 03:06:59;;;;;;;16.40;11.13;;;0.90;93.90;;;;;;5130538;28;20227;-87
2022/03/07 03:09:28;;;;;;;25.67;12.20;;;0.90;93.70;;;;;;5129446;28;20210;-88
2022/03/07 03:11:56;;;;;;;14.67;10.57;;;0.90;93.20;;;;;;5110064;28;20245;-87
2022/03/07 03:14:24;;;;;;;10.57;9.50;;;0.90;94.00;;;;;;5110224;28;20204;-87
2022/03/07 03:16:53;;;;;;;14.33;11.03;;;0.90;93.30;;;;;;5110343;28;20208;-87
2022/03/07 03:19:23;;;;;;;14.40;11.93;;;1.00;93.90;;;;;;5110260;28;20228;-87
2022/03/07 03:21:53;;;;;;;16.87;11.13;;;1.00;95.80;;;;;;5109621;28;20224;-88
2022/03/07 03:24:21;;;;;;;15.47;11.60;;;1.00;94.80;;;;;;5109787;28;20204;-87
2022/03/07 03:26:50;;;;;;;13.80;10.27;;;1.00;93.80;;;;;;5109892;28;20291;-88
2022/03/07 03:29:18;;;;;;;16.63;12.97;;;1.00;95.10;;;;;;5109765;28;20257;-87
2022/03/07 03:31:46;;;;;;;14.87;12.53;;;1.00;96.50;;;;;;5109805;28;20200;-87
2022/03/07 03:34:15;;;;;;;15.17;11.70;;;0.90;94.40;;;;;;5109735;28;20204;-87
2022/03/07 03:36:45;;;;;;;18.83;12.37;;;0.90;94.70;;;;;;5109852;28;20234;-87
2022/03/07 03:39:14;;;;;;;12.67;11.43;;;0.90;95.00;;;;;;5109639;28;20202;-87
2022/03/07 03:41:42;;;;;;;17.33;13.03;;;0.90;94.70;;;;;;5109089;28;20248;-87
2022/03/07 03:44:11;;;;;;;14.67;11.50;;;0.90;94.80;;;;;;5109512;28;20200;-88
2022/03/07 03:46:39;;;;;;;17.73;13.47;;;0.80;95.00;;;;;;5109247;28;20208;-88
2022/03/07 03:49:08;;;;;;;15.43;12.77;;;0.80;96.10;;;;;;5109655;28;20204;-87
2022/03/07 03:51:36;;;;;;;28.30;13.00;;;0.80;95.70;;;;;;5108701;28;20219;-87
2022/03/07 03:54:06;;;;;;;17.63;13.80;;;0.80;96.00;;;;;;5109214;28;20212;-88
2022/03/07 03:56:34;;;;;;;20.43;14.77;;;0.80;96.00;;;;;;5109309;28;20241;-88
2022/03/07 03:59:04;;;;;;;17.10;13.10;;;0.80;96.50;;;;;;5109141;28;20203;-88
2022/03/07 04:01:32;;;;;;;19.57;14.07;;;0.80;96.70;;;;;;5108851;28;20231;-87
2022/03/07 04:04:01;;;;;;;16.33;13.83;;;0.80;97.70;;;;;;5109172;28;20300;-87
2022/03/07 04:06:29;;;;;;;17.57;13.60;;;0.80;96.60;;;;;;5109045;28;20212;-87
2022/03/07 04:09:16;;;;;;;13.27;11.90;;;0.80;97.30;;;;;;5109056;28;20207;-87
2022/03/07 04:11:46;;;;;;;15.60;13.37;;;0.80;97.00;;;;;;5104415;28;20200;-87
2022/03/07 04:14:16;;;;;;;17.00;13.77;;;0.70;97.90;;;;;;5095515;28;20223;-87
2022/03/07 04:16:53;;;;;;;15.77;13.53;;;0.70;99.10;;;;;;5095397;28;20258;-87
2022/03/07 04:19:22;;;;;;;21.07;13.80;;;0.80;99.30;;;;;;5095030;28;20261;-88
2022/03/07 04:21:51;;;;;;;20.83;15.23;;;0.70;98.70;;;;;;5094831;28;20231;-87
2022/03/07 04:24:20;;;;;;;19.40;13.93;;;0.80;99.60;;;;;;5095082;28;20239;-87
2022/03/07 04:26:50;;;;;;;19.87;14.30;;;0.80;99.10;;;;;;5095152;28;20356;-87
2022/03/07 04:29:18;;;;;;;18.50;14.03;;;0.80;99.20;;;;;;5095019;28;20226;-88
2022/03/07 04:31:47;;;;;;;15.40;13.73;;;0.80;99.30;;;;;;5094837;28;20204;-87
2022/03/07 04:34:15;;;;;;;16.97;12.43;;;0.70;98.60;;;;;;5095930;28;20208;-87
2022/03/07 04:36:44;;;;;;;20.47;14.30;;;0.70;99.20;;;;;;5096523;28;20239;-87
2022/03/07 04:39:12;;;;;;;22.60;15.37;;;0.70;99.60;;;;;;5095642;28;20196;-88
2022/03/07 04:41:43;;;;;;;18.83;14.60;;;0.70;99.40;;;;;;5096592;28;20220;-88
2022/03/07 04:44:13;;;;;;;23.27;13.80;;;0.70;99.30;;;;;;5094958;28;20223;-88
2022/03/07 04:46:42;;;;;;;20.83;14.93;;;0.70;98.60;;;;;;5094803;28;20235;-87
2022/03/07 04:49:11;;;;;;;19.63;14.50;;;0.70;99.10;;;;;;5094709;28;20208;-87
2022/03/07 04:51:45;;;;;;;15.87;13.30;;;0.70;98.70;;;;;;5094020;28;20224;-87
2022/03/07 04:54:14;;;;;;;17.73;13.10;;;0.70;99.90;;;;;;5095960;28;20228;-88
2022/03/07 04:56:43;;;;;;;19.47;13.27;;;0.60;98.10;;;;;;5097781;28;20200;-87
2022/03/07 04:59:14;;;;;;;13.60;12.07;;;0.60;98.70;;;;;;5098513;28;20200;-88
2022/03/07 05:01:42;;;;;;;19.70;12.57;;;0.60;97.50;;;;;;5098601;28;20281;-88
2022/03/07 05:04:11;;;;;;;14.87;12.63;;;0.60;97.70;;;;;;5094918;28;20296;-88
2022/03/07 05:06:40;;;;;;;19.37;12.10;;;0.70;98.10;;;;;;5094635;28;20212;-87
2022/03/07 05:09:08;;;;;;;15.97;11.50;;;0.60;97.60;;;;;;5094264;28;20212;-87
2022/03/07 05:11:36;;;;;;;15.07;11.97;;;0.60;97.20;;;;;;5094410;28;20242;-87
2022/03/07 05:14:05;;;;;;;17.53;11.53;;;0.60;96.90;;;;;;5094013;28;20200;-87
2022/03/07 05:16:35;;;;;;;16.07;12.87;;;0.50;96.80;;;;;;5094382;28;20305;-87
2022/03/07 05:19:04;;;;;;;12.77;11.13;;;0.50;96.90;;;;;;5094223;28;20204;-88
2022/03/07 05:21:33;;;;;;;13.63;11.27;;;0.50;97.00;;;;;;5093898;28;20307;-87
2022/03/07 05:24:04;;;;;;;13.83;10.63;;;0.50;96.80;;;;;;5093248;28;20208;-87
2022/03/07 05:26:33;;;;;;;12.43;10.97;;;0.60;96.40;;;;;;5093956;28;20212;-87
2022/03/07 05:29:03;;;;;;;12.17;10.20;;;0.60;96.30;;;;;;5093989;28;20205;-87
2022/03/07 05:31:32;;;;;;;15.37;11.07;;;0.50;96.00;;;;;;5093422;28;20220;-88
2022/03/07 05:34:01;;;;;;;13.87;11.90;;;0.50;96.70;;;;;;5093761;28;20200;-88
2022/03/07 05:36:30;;;;;;;15.07;11.23;;;0.50;97.60;;;;;;5094014;28;20257;-89
2022/03/07 05:38:59;;;;;;;15.23;12.93;;;0.50;96.40;;;;;;5093929;28;20208;-88
2022/03/07 05:41:27;;;;;;;14.60;12.43;;;0.50;96.80;;;;;;5093311;28;20231;-87
2022/03/07 05:44:03;;;;;;;14.57;11.17;;;0.50;96.60;;;;;;5093498;28;20258;-87
2022/03/07 05:46:32;;;;;;;15.27;11.03;;;0.40;96.40;;;;;;5093510;28;20272;-88
2022/03/07 05:49:02;;;;;;;10.90;9.83;;;0.50;98.60;;;;;;5093704;28;20271;-87
2022/03/07 05:51:31;;;;;;;14.83;11.47;;;0.40;97.30;;;;;;5093064;28;20213;-87
2022/03/07 05:53:59;;;;;;;12.07;10.47;;;0.40;96.60;;;;;;5093248;28;20201;-87
2022/03/07 05:56:28;;;;;;;11.77;10.07;;;0.40;97.40;;;;;;5093151;28;20216;-87
2022/03/07 05:58:56;;;;;;;11.77;10.27;;;0.40;96.50;;;;;;5094003;28;20201;-87
2022/03/07 06:01:25;;;;;;;11.30;9.97;;;0.40;95.70;;;;;;5092923;28;20239;-87
2022/03/07 06:03:53;;;;;;;11.63;9.83;;;0.40;97.80;;;;;;5093623;28;20208;-86
2022/03/07 06:06:23;;;;;;;10.50;9.43;;;0.40;96.70;;;;;;5093166;28;20220;-86
2022/03/07 06:08:51;;;;;;;14.57;10.43;;;0.40;95.50;;;;;;5092962;28;20204;-87
2022/03/07 06:11:20;;;;;;;10.20;9.03;;;0.40;95.70;;;;;;5092458;28;20269;-87
2022/03/07 06:13:48;;;;;;;11.23;8.87;;;0.50;96.00;;;;;;5092908;28;20208;-87
2022/03/07 06:16:17;;;;;;;11.27;9.30;;;0.50;95.30;;;;;;5093516;28;20269;-87
2022/03/07 06:18:45;;;;;;;13.33;10.73;;;0.60;95.00;;;;;;5092961;28;20234;-87
2022/03/07 06:21:14;;;;;;;9.43;8.53;;;0.60;94.80;;;;;;5092537;28;20220;-86
2022/03/07 06:23:44;;;;;;;11.13;8.73;;;0.70;94.90;;;;;;5092592;28;20273;-86
2022/03/07 06:26:12;;;;;;;11.57;9.23;;;0.70;93.80;;;;;;5093172;28;20205;-86
2022/03/07 06:28:40;;;;;;;10.87;8.73;;;0.70;94.20;;;;;;5093269;28;20208;-87
2022/03/07 06:31:09;;;;;;;16.57;9.63;;;0.80;93.80;;;;;;5092418;28;20229;-87
2022/03/07 06:33:37;;;;;;;10.73;9.37;;;0.70;93.60;;;;;;5092324;28;20204;-86
2022/03/07 06:36:06;;;;;;;11.17;8.87;;;0.80;93.10;;;;;;5092518;28;20213;-87
2022/03/07 06:38:35;;;;;;;10.47;8.87;;;0.70;93.30;;;;;;5093011;28;20204;-87
2022/03/07 06:41:05;;;;;;;9.40;8.30;;;0.70;93.50;;;;;;5092681;28;20255;-87
2022/03/07 06:43:33;;;;;;;12.50;9.00;;;0.70;93.90;;;;;;5092835;28;20224;-87
2022/03/07 06:46:02;;;;;;;8.87;8.03;;;0.70;94.30;;;;;;5092704;28;20200;-87
2022/03/07 06:48:31;;;;;;;10.60;9.27;;;0.80;93.40;;;;;;5092435;28;20317;-86
2022/03/07 06:50:59;;;;;;;16.17;10.40;;;0.70;93.80;;;;;;5092164;28;20277;-87
2022/03/07 06:53:28;;;;;;;13.17;9.50;;;0.80;93.90;;;;;;5092635;28;20201;-87
2022/03/07 06:55:57;;;;;;;10.07;8.27;;;0.90;94.00;;;;;;5092886;28;20204;-86
2022/03/07 06:58:26;;;;;;;9.50;8.60;;;0.90;92.80;;;;;;5092732;28;20264;-86
2022/03/07 07:00:55;;;;;;;13.03;9.57;;;0.90;92.70;;;;;;5092419;28;20228;-86
2022/03/07 07:03:23;;;;;;;11.33;9.90;;;0.90;93.20;;;;;;5092153;28;20231;-87
2022/03/07 07:05:52;;;;;;;11.03;9.90;;;0.90;92.60;;;;;;5092377;28;20212;-88
2022/03/07 07:08:21;;;;;;;10.50;9.27;;;1.00;93.80;;;;;;5092609;28;20227;-88
2022/03/07 07:10:49;;;;;;;9.77;8.37;;;1.00;93.60;;;;;;5092298;28;20235;-87
2022/03/07 07:13:17;;;;;;;13.00;9.37;;;0.90;92.20;;;;;;5092382;28;20208;-87
2022/03/07 07:15:55;;;;;;;20.53;9.67;;;1.00;92.20;;;;;;5092422;28;20208;-87
2022/03/07 07:18:24;;;;;;;10.07;8.53;;;1.00;92.40;;;;;;5092263;28;20208;-87
2022/03/07 07:20:53;;;;;;;12.17;8.70;;;1.00;92.30;;;;;;5092048;28;20304;-86
2022/03/07 07:23:23;;;;;;;7.43;6.73;;;1.00;91.60;;;;;;5092257;28;20220;-88
2022/03/07 07:26:01;;;;;;;10.50;7.83;;;0.90;91.90;;;;;;5092440;28;20280;-87
2022/03/07 07:28:32;;;;;;;7.90;7.13;;;0.90;91.80;;;;;;5093857;28;20208;-84
2022/03/07 07:31:05;;;;;;;12.23;7.77;;;0.80;92.20;;;;;;5092319;28;20228;-85
2022/03/07 07:33:35;;;;;;;11.73;8.83;;;0.80;92.40;;;;;;5093340;28;20200;-85
2022/03/07 07:36:06;;;;;;;8.93;7.80;;;0.80;92.00;;;;;;5093082;28;20206;-84
2022/03/07 07:38:42;;;;;;;8.60;7.40;;;0.80;92.00;;;;;;5093540;28;20204;-85
2022/03/07 07:46:25;;;;;;;7.80;6.73;;;0.90;92.10;;;;;;5029593;28;20199;-90
2022/03/07 07:48:54;;;;;;;9.47;7.63;;;1.00;91.90;;;;;;5032295;28;20317;-91
2022/03/07 07:51:22;;;;;;;8.57;7.67;;;1.10;91.70;;;;;;5032984;28;20281;-90
2022/03/07 07:53:51;;;;;;;8.67;7.77;;;1.10;91.30;;;;;;5035227;28;20207;-89
2022/03/07 07:56:21;;;;;;;7.97;6.77;;;1.10;91.10;;;;;;5034985;28;20202;-90
2022/03/07 07:58:50;;;;;;;10.97;8.20;;;1.10;91.80;;;;;;5033371;28;20199;-91
2022/03/07 08:01:18;;;;;;;8.53;7.73;;;1.10;90.60;;;;;;5033623;28;20276;-90
2022/03/07 08:03:56;;;;;;;7.57;6.90;;;1.20;90.50;;;;;;5035458;28;20225;-90
2022/03/07 08:06:42;;;;;;;7.57;6.73;;;1.10;90.50;;;;;;5035451;28;20202;-89
2022/03/07 08:09:12;;;;;;;7.53;6.80;;;1.20;90.40;;;;;;5034653;28;20206;-91
2022/03/07 08:11:43;;;;;;;9.67;7.07;;;1.30;90.60;;;;;;5034841;28;20230;-91
2022/03/07 08:14:12;;;;;;;11.17;8.43;;;1.20;90.00;;;;;;5035788;28;20190;-90
2022/03/07 08:16:40;;;;;;;11.90;8.57;;;1.30;90.10;;;;;;5035097;28;20202;-91
2022/03/07 08:19:10;;;;;;;7.30;6.57;;;1.10;92.00;;;;;;5035087;28;20194;-91
2022/03/07 08:21:39;;;;;;;8.50;7.17;;;1.10;91.00;;;;;;5034988;28;20234;-91
2022/03/07 08:24:07;;;;;;;10.43;7.97;;;1.00;91.60;;;;;;5033186;28;20222;-92
2022/03/07 08:26:38;;;;;;;10.53;7.27;;;0.90;91.80;;;;;;5015484;28;20203;-91
2022/03/07 08:29:15;;;;;;;10.37;8.10;;;0.90;92.00;;;;;;5024011;28;20221;-91
2022/03/07 08:31:44;;;;;;;8.03;7.27;;;0.90;92.60;;;;;;5041545;28;20205;-91
2022/03/07 08:34:14;;;;;;;8.80;7.00;;;0.90;94.60;;;;;;5049832;28;20281;-91
2022/03/07 08:36:53;;;;;;;8.20;6.63;;;0.80;92.50;;;;;;5051810;28;20201;-91
2022/03/07 08:39:44;;;;;;;8.63;7.73;;;0.80;92.00;;;;;;5042989;28;20197;-90
2022/03/07 08:42:13;;;;;;;9.07;7.50;;;0.80;92.90;;;;;;5035238;28;20198;-91
2022/03/07 08:44:51;;;;;;;10.00;8.17;;;0.90;91.60;;;;;;5054799;28;20245;-88
2022/03/07 08:47:20;;;;;;;10.77;8.10;;;1.00;92.10;;;;;;5055269;28;20206;-91
2022/03/07 08:49:50;;;;;;;8.07;7.27;;;1.00;91.80;;;;;;5045437;28;20226;-87
2022/03/07 08:52:19;;;;;;;9.23;7.67;;;1.10;89.80;;;;;;5034503;28;20230;-87
2022/03/07 08:54:47;;;;;;;7.77;6.80;;;1.10;89.00;;;;;;5034539;28;20198;-87
2022/03/07 08:57:16;;;;;;;8.73;6.90;;;1.20;88.00;;;;;;5036903;28;20233;-87
2022/03/07 08:59:44;;;;;;;12.33;7.30;;;1.20;87.80;;;;;;5034470;28;20227;-87
2022/03/07 09:02:13;;;;;;;7.93;6.97;;;1.20;89.00;;;;;;5034072;28;20242;-86
2022/03/07 09:04:44;;;;;;;9.27;6.43;;;1.20;87.60;;;;;;5034066;28;20225;-85
2022/03/07 09:07:14;;;;;;;7.77;6.93;;;1.20;87.40;;;;;;5034091;28;20202;-86
2022/03/07 09:09:42;;;;;;;7.87;6.97;;;1.20;87.20;;;;;;5034025;28;20230;-86
2022/03/07 09:12:11;;;;;;;8.43;7.40;;;1.20;87.50;;;;;;5034013;28;20206;-86
2022/03/07 09:14:39;;;;;;;8.33;6.47;;;1.30;87.00;;;;;;5034202;28;20210;-85
2022/03/07 09:17:08;;;;;;;9.00;6.73;;;1.50;86.70;;;;;;5034044;28;20206;-85
2022/03/07 09:19:37;;;;;;;13.40;7.13;;;1.50;85.30;;;;;;5033892;28;20226;-84
2022/03/07 09:22:05;;;;;;;6.27;5.77;;;1.60;88.00;;;;;;5033314;28;20207;-85
2022/03/07 09:24:35;;;;;;;5.80;5.23;;;1.60;84.20;;;;;;5033678;28;20218;-85
2022/03/07 09:27:03;;;;;;;11.27;6.83;;;1.50;83.70;;;;;;5027859;28;20231;-85
2022/03/07 09:29:32;;;;;;;6.60;5.93;;;1.60;86.10;;;;;;5033668;28;20211;-85
2022/03/07 09:32:01;;;;;;;7.13;6.07;;;1.80;84.90;;;;;;5033422;28;20202;-85
2022/03/07 09:34:30;;;;;;;7.40;5.57;;;1.90;83.10;;;;;;5033761;28;20202;-85
2022/03/07 09:36:58;;;;;;;6.37;5.57;;;1.90;82.20;;;;;;5033247;28;20245;-85
2022/03/07 09:39:27;;;;;;;10.17;6.10;;;2.00;83.10;;;;;;5033314;28;20237;-86
2022/03/07 09:41:58;;;;;;;6.10;5.50;;;2.20;84.50;;;;;;5033090;28;20206;-85
2022/03/07 09:44:27;;;;;;;6.50;5.67;;;2.20;80.20;;;;;;5033047;28;20226;-83
2022/03/07 09:46:57;;;;;;;7.67;6.60;;;2.10;81.10;;;;;;5033321;28;20209;-84
2022/03/07 09:49:27;;;;;;;6.37;5.50;;;2.00;82.20;;;;;;5033557;28;20207;-83
2022/03/07 09:51:55;;;;;;;5.70;4.97;;;1.90;80.40;;;;;;5033250;28;20309;-84
2022/03/07 09:54:24;;;;;;;5.50;4.97;;;2.10;81.30;;;;;;5033294;28;20226;-84
2022/03/07 09:56:55;;;;;;;6.47;5.47;;;2.50;78.60;;;;;;5028978;28;20202;-84
2022/03/07 09:59:25;;;;;;;6.50;5.25;;;3.00;79.30;;;;;;5029842;28;20210;-84
2022/03/07 10:02:01;;;;;;;4.93;4.53;;;3.00;76.70;;;;;;5031772;28;20206;-84
2022/03/07 10:04:31;;;;;;;4.80;4.35;;;2.70;77.40;;;;;;5029050;28;20222;-84
2022/03/07 10:07:03;;;;;;;5.25;4.75;;;2.50;76.70;;;;;;5033057;28;20372;-83
2022/03/07 10:09:31;;;;;;;6.50;5.28;;;2.60;79.80;;;;;;5032158;28;20234;-84
2022/03/07 10:12:02;;;;;;;11.77;6.73;;;2.70;81.60;;;;;;5032462;28;20268;-84
2022/03/07 10:14:41;;;;;;;6.95;6.00;;;2.60;82.20;;;;;;5032509;28;20305;-83
2022/03/07 10:17:22;;;;;;;6.43;5.50;;;2.80;80.70;;;;;;5032882;28;20289;-84
2022/03/07 10:19:51;;;;;;;7.13;5.97;;;2.60;82.60;;;;;;5032823;28;20275;-84
2022/03/07 10:22:22;;;;;;;8.02;6.22;;;2.70;81.20;;;;;;5032265;28;20249;-84
2022/03/07 10:24:59;;;;;;;6.97;6.25;;;2.90;81.40;;;;;;5032461;28;20285;-84
2022/03/07 10:27:29;;;;;;;5.43;4.93;;;3.00;80.80;;;;;;5032642;28;20229;-84
2022/03/07 10:29:59;;;;;;;5.55;5.03;;;2.90;78.80;;;;;;5032900;28;20234;-84
2022/03/07 10:32:28;;;;;;;6.55;5.85;;;2.80;80.90;;;;;;5032750;28;20292;-84
2022/03/07 10:34:56;;;;;;;5.18;4.70;;;2.80;79.20;;;;;;5032774;28;20221;-83
2022/03/07 10:37:35;;;;;;;7.07;5.82;;;2.80;78.50;;;;;;5033373;28;20202;-85
2022/03/07 10:40:08;;;;;;;7.00;5.95;;;2.90;79.60;;;;;;5052580;28;20221;-84
2022/03/07 10:42:44;;;;;;;5.63;4.90;;;2.90;79.80;;;;;;5052373;28;20275;-84
2022/03/07 10:45:14;;;;;;;5.10;4.47;;;3.00;78.70;;;;;;5052164;28;20221;-84
2022/03/07 10:47:43;;;;;;;4.45;4.05;;;2.90;80.40;;;;;;5052696;28;20274;-85
2022/03/07 10:50:12;;;;;;;6.80;5.40;;;2.90;78.30;;;;;;5049457;28;20230;-85
2022/03/07 10:52:42;;;;;;;5.25;4.45;;;3.00;78.10;;;;;;5052109;28;20213;-85
2022/03/07 10:55:14;;;;;;;8.00;5.03;;;3.20;81.20;;;;;;5052079;28;20206;-84
2022/03/07 10:57:43;;;;;;;10.68;5.25;;;3.40;80.60;;;;;;5052164;28;20210;-84
2022/03/07 11:00:16;;;;;;;3.85;3.55;;;3.40;79.00;;;;;;5052131;28;20325;-84
2022/03/07 11:02:45;;;;;;;4.97;4.57;;;3.50;78.90;;;;;;5052280;28;20296;-86
2022/03/07 11:05:16;;;;;;;4.65;4.20;;;3.60;78.00;;;;;;5052088;28;20225;-85
2022/03/07 11:07:49;;;;;;;4.53;4.22;;;3.70;77.40;;;;;;5052017;28;20202;-85
2022/03/07 11:10:18;;;;;;;4.00;3.70;;;3.60;77.30;;;;;;5052026;28;20222;-84
2022/03/07 11:12:46;;;;;;;5.40;4.90;;;3.40;78.00;;;;;;5052022;28;20201;-85
2022/03/07 11:15:18;;;;;;;6.43;5.68;;;3.30;80.30;;;;;;5050183;28;20295;-84
2022/03/07 11:17:48;;;;;;;6.72;4.93;;;3.40;78.80;;;;;;5032018;28;20194;-86
2022/03/07 11:20:18;;;;;;;6.07;5.57;;;3.40;79.30;;;;;;5031261;28;20264;-86
2022/03/07 11:22:46;;;;;;;5.32;4.32;;;3.40;80.40;;;;;;5033958;28;20222;-85
2022/03/07 11:25:16;;;;;;;8.45;5.68;;;3.40;79.80;;;;;;5035693;28;20245;-86
2022/03/07 11:27:45;;;;;;;4.60;4.15;;;3.40;80.80;;;;;;5035159;28;20210;-86
2022/03/07 11:30:19;;;;;;;4.05;3.70;;;3.20;80.20;;;;;;5036046;28;20226;-86
2022/03/07 11:32:52;;;;;;;4.93;4.20;;;3.10;81.00;;;;;;5035970;28;20217;-87
2022/03/07 11:35:23;;;;;;;3.83;3.53;;;3.40;85.90;;;;;;5035922;28;20208;-85
2022/03/07 11:37:51;;;;;;;5.15;4.57;;;3.80;80.90;;;;;;5035315;28;20210;-86
2022/03/07 11:40:22;;;;;;;4.43;3.60;;;4.10;78.90;;;;;;5035602;28;20233;-86
2022/03/07 11:42:51;;;;;;;5.45;4.25;;;3.80;77.50;;;;;;5036541;28;20215;-87
2022/03/07 11:45:23;;;;;;;4.28;3.85;;;4.00;78.90;;;;;;5055233;28;20230;-86
2022/03/07 11:47:52;;;;;;;15.77;4.65;;;4.00;78.30;;;;;;5055380;28;20270;-85
2022/03/07 11:50:26;;;;;;;4.32;3.75;;;3.80;79.00;;;;;;5055054;28;20229;-86
2022/03/07 11:53:04;;;;;;;5.63;4.38;;;3.70;79.80;;;;;;5055147;28;20201;-85
2022/03/07 11:55:34;;;;;;;5.53;4.50;;;3.60;80.90;;;;;;5055640;28;20206;-86
2022/03/07 11:58:04;;;;;;;6.00;4.65;;;3.40;81.60;;;;;;5055171;28;20222;-85
2022/03/07 12:00:36;;;;;;;6.35;4.90;;;3.30;82.30;;;;;;5044717;28;20290;-85
2022/03/07 12:03:12;;;;;;;5.95;4.82;;;3.20;83.50;;;;;;5034835;28;20209;-85
2022/03/07 12:05:42;;;;;;;5.70;4.25;;;3.30;85.30;;;;;;5035396;28;20345;-86
2022/03/07 12:08:15;;;;;;;5.93;4.55;;;3.40;83.70;;;;;;5034841;28;20207;-86
2022/03/07 12:10:55;;;;;;;6.93;3.97;;;3.50;84.30;;;;;;5034811;28;20228;-86
2022/03/07 12:13:29;;;;;;;6.05;4.40;;;3.60;83.80;;;;;;5035093;28;20201;-87
2022/03/07 12:15:59;;;;;;;4.28;3.88;;;3.70;84.00;;;;;;5035440;28;20275;-86
2022/03/07 12:18:30;;;;;;;4.97;4.32;;;3.60;83.40;;;;;;5034856;28;20264;-86
2022/03/07 12:21:00;;;;;;;5.13;3.88;;;3.30;84.20;;;;;;5034587;28;20317;-86
2022/03/07 12:23:33;;;;;;;4.30;4.00;;;3.10;87.30;;;;;;5034902;28;20268;-87
2022/03/07 12:26:09;;;;;;;4.07;3.70;;;3.10;86.80;;;;;;5034559;28;20226;-84
2022/03/07 12:28:40;;;;;;;4.65;4.25;;;3.00;87.10;;;;;;5035232;28;20272;-85
2022/03/07 12:31:10;;;;;;;6.72;4.97;;;3.00;89.60;;;;;;5034740;28;20231;-85
2022/03/07 12:33:39;;;;;;;5.38;4.88;;;2.90;89.00;;;;;;5034548;28;20210;-84
2022/03/07 12:36:27;;;;;;;6.70;5.00;;;2.80;91.60;;;;;;5037796;28;20217;-83
2022/03/07 12:38:57;;;;;;;5.15;4.65;;;2.90;90.10;;;;;;5035186;28;20207;-84
2022/03/07 12:41:30;;;;;;;4.82;4.20;;;3.10;89.90;;;;;;5034605;28;20269;-83
2022/03/07 12:43:58;;;;;;;4.78;4.35;;;3.70;88.50;;;;;;5034628;28;20276;-85
2022/03/07 12:46:29;;;;;;;4.97;4.57;;;3.80;88.70;;;;;;5034241;28;20222;-84
2022/03/07 12:48:58;;;;;;;4.63;4.22;;;3.80;87.30;;;;;;5034462;28;20289;-84
2022/03/07 12:51:27;;;;;;;5.28;4.45;;;3.80;90.10;;;;;;5034623;28;20308;-85
2022/03/07 12:53:58;;;;;;;24.27;5.03;;;3.50;89.20;;;;;;5034504;28;20206;-84
2022/03/07 12:56:34;;;;;;;5.35;4.75;;;3.60;89.50;;;;;;5040877;28;20207;-84
2022/03/07 12:59:03;;;;;;;6.40;5.00;;;3.70;89.90;;;;;;5034491;28;20237;-84
2022/03/07 13:01:34;;;;;;;6.00;5.20;;;3.70;88.80;;;;;;5034092;28;20230;-84
2022/03/07 13:04:02;;;;;;;5.72;5.13;;;4.00;88.80;;;;;;5034816;28;20206;-84